Genoa, Arkansas
Current Conditions -  °F | °C
As of 7:53 AM on Sunday 25 Jan 2015 (Local Time) from KTXK Reporting Station
Clear Clear  
Wind Chill: 34°   Ceiling: Unl
Heat Index: 41°   Visibility: 10mi
Dew Point: 36°   Wind: 12mph
Humidity: 82%   Direction: 220°SW
Pressure: 29.86"   Gusts: NA
Location:  33.38°N, 93.91°W
Report Text: KTXK 251353Z 22010KT 10SM CLR 05/02 A2986 RMK AO2 SLP110 T00500022
Loading
Personal Weather Stations






























Interactive Weather Map New forecast layout! Learn more

10-Day Weather Forecast

Advertisements
Track Severe Weather on mobile